createdAt,value
2023-03-03T00:00:57.208Z,38.10
2023-03-03T00:02:52.652Z,33.30
2023-03-03T00:04:48.641Z,38.53
2023-03-03T00:06:45.088Z,35.70
2023-03-03T00:08:44.728Z,36.33
2023-03-03T00:10:42.194Z,33.23
2023-03-03T00:12:58.487Z,35.57
2023-03-03T00:14:57.647Z,37.93
2023-03-03T00:16:52.855Z,38.27
2023-03-03T00:18:51.092Z,35.50
2023-03-03T00:20:52.866Z,33.10
2023-03-03T00:22:47.881Z,36.17
2023-03-03T00:24:43.142Z,33.27
2023-03-03T00:26:43.817Z,36.53
2023-03-03T00:28:49.096Z,34.37
2023-03-03T00:30:45.776Z,30.13
2023-03-03T00:32:47.221Z,33.90
2023-03-03T00:34:46.016Z,33.13
2023-03-03T00:36:58.524Z,31.97
2023-03-03T00:38:54.017Z,32.27
2023-03-03T00:40:52.712Z,31.00
2023-03-03T00:42:53.304Z,32.50
2023-03-03T00:44:50.549Z,32.50
2023-03-03T00:46:47.017Z,30.30
2023-03-03T00:48:47.136Z,31.17
2023-03-03T00:50:47.390Z,28.60
2023-03-03T00:52:44.777Z,28.33
2023-03-03T00:54:40.459Z,29.77
2023-03-03T00:56:36.030Z,32.03
2023-03-03T00:58:32.023Z,28.47
2023-03-03T01:00:25.264Z,29.73
2023-03-03T01:02:20.732Z,29.43
2023-03-03T01:04:16.479Z,32.97
2023-03-03T01:06:15.458Z,32.23
2023-03-03T01:08:11.142Z,29.20
2023-03-03T01:10:09.646Z,31.53
2023-03-03T01:12:05.422Z,27.87
2023-03-03T01:14:00.682Z,32.53
2023-03-03T01:15:56.876Z,29.77
2023-03-03T01:17:53.741Z,29.83
2023-03-03T01:19:49.729Z,30.07
2023-03-03T01:21:47.943Z,29.37
2023-03-03T01:23:44.308Z,29.17
2023-03-03T01:25:39.996Z,26.10
2023-03-03T01:27:36.836Z,34.00
2023-03-03T01:29:31.860Z,29.23
2023-03-03T01:31:27.449Z,28.17
2023-03-03T01:33:22.796Z,27.83
2023-03-03T01:35:18.753Z,28.20
2023-03-03T01:37:16.513Z,33.27
2023-03-03T01:39:14.066Z,32.33
2023-03-03T01:41:09.408Z,28.50
2023-03-03T01:43:04.706Z,30.53
2023-03-03T01:45:19.296Z,32.87
2023-03-03T01:47:18.576Z,31.30
2023-03-03T01:49:17.603Z,31.13
2023-03-03T01:51:18.550Z,31.10
2023-03-03T01:53:23.805Z,29.70
2023-03-03T01:55:24.977Z,32.70
2023-03-03T01:57:27.492Z,31.63
2023-03-03T01:59:26.382Z,33.53
2023-03-03T02:01:25.058Z,31.33
2023-03-03T02:03:22.893Z,30.50
2023-03-03T02:05:19.523Z,33.17
2023-03-03T02:07:16.920Z,32.67
2023-03-03T02:09:19.546Z,30.67
2023-03-03T02:11:16.399Z,31.80
2023-03-03T02:13:11.981Z,32.80
2023-03-03T02:15:19.592Z,36.50
2023-03-03T02:17:15.312Z,32.67
2023-03-03T02:19:20.377Z,33.97
2023-03-03T02:21:19.293Z,34.50
2023-03-03T02:23:23.748Z,33.60
2023-03-03T02:25:27.777Z,33.83
2023-03-03T02:27:26.287Z,31.53
2023-03-03T02:29:21.689Z,32.03
2023-03-03T02:31:19.914Z,30.00
2023-03-03T02:33:15.141Z,32.13
2023-03-03T02:35:30.243Z,30.43
2023-03-03T02:37:25.709Z,29.43
2023-03-03T02:39:22.797Z,30.43
2023-03-03T02:41:25.540Z,29.80
2023-03-03T02:43:25.933Z,32.27
2023-03-03T02:45:21.011Z,32.33
2023-03-03T02:47:16.752Z,29.07
2023-03-03T02:49:13.584Z,31.37
2023-03-03T02:51:09.030Z,32.50
2023-03-03T02:53:04.019Z,29.33
2023-03-03T02:54:59.350Z,35.00
2023-03-03T02:56:54.336Z,34.00
2023-03-03T02:58:52.275Z,31.10
2023-03-03T03:00:47.708Z,35.77
2023-03-03T03:02:43.317Z,34.27
2023-03-03T03:04:38.893Z,32.27
2023-03-03T03:06:34.436Z,36.57
2023-03-03T03:08:29.399Z,33.80
2023-03-03T03:10:24.377Z,33.03
2023-03-03T03:12:21.244Z,36.80
2023-03-03T03:14:18.855Z,34.53
2023-03-03T03:16:14.257Z,34.33
2023-03-03T03:18:09.381Z,32.70
2023-03-03T03:20:04.648Z,37.43
2023-03-03T03:21:59.587Z,31.80
2023-03-03T03:23:55.051Z,34.23
2023-03-03T03:25:52.042Z,32.70
2023-03-03T03:27:50.385Z,33.70
2023-03-03T03:29:47.925Z,34.33
2023-03-03T03:31:43.840Z,46.90
2023-03-03T03:33:39.257Z,42.13
2023-03-03T03:35:36.138Z,36.40
2023-03-03T03:37:31.107Z,38.90
2023-03-03T03:39:26.428Z,34.70
2023-03-03T03:41:21.743Z,36.13
2023-03-03T03:43:17.166Z,38.67
2023-03-03T03:45:17.658Z,36.63
2023-03-03T03:47:13.020Z,36.27
2023-03-03T03:49:07.969Z,36.70
2023-03-03T03:51:03.325Z,37.40
2023-03-03T03:52:58.303Z,37.03
2023-03-03T03:54:53.570Z,37.73
2023-03-03T03:56:48.692Z,38.60
2023-03-03T03:58:44.067Z,39.47
2023-03-03T04:00:43.684Z,41.73
2023-03-03T04:02:39.674Z,36.80
2023-03-03T04:04:34.836Z,39.70
2023-03-03T04:06:30.124Z,38.60
2023-03-03T04:08:25.080Z,41.67
2023-03-03T04:10:20.632Z,43.93
2023-03-03T04:12:15.610Z,42.13
2023-03-03T04:14:10.876Z,44.10
2023-03-03T04:16:08.748Z,40.07
2023-03-03T04:18:04.237Z,40.90
2023-03-03T04:19:59.150Z,41.70
2023-03-03T04:21:54.743Z,44.57
2023-03-03T04:23:50.123Z,39.53
2023-03-03T04:25:45.353Z,44.77
2023-03-03T04:27:40.517Z,45.27
2023-03-03T04:29:35.824Z,45.43
2023-03-03T04:31:33.567Z,42.90
2023-03-03T04:33:32.234Z,43.67
2023-03-03T04:35:27.264Z,45.47
2023-03-03T04:37:22.785Z,42.63
2023-03-03T04:39:17.723Z,46.83
2023-03-03T04:41:13.044Z,47.40
2023-03-03T04:43:08.078Z,47.93
2023-03-03T04:45:03.365Z,46.07
2023-03-03T04:47:00.900Z,48.40
2023-03-03T04:48:56.935Z,50.93
2023-03-03T04:50:51.941Z,47.70
2023-03-03T04:52:47.295Z,46.00
2023-03-03T04:54:42.222Z,49.07
2023-03-03T04:56:37.529Z,46.20
2023-03-03T04:58:32.527Z,50.00
2023-03-03T05:00:27.952Z,45.90
2023-03-03T05:02:25.675Z,49.90
2023-03-03T05:04:21.204Z,48.57
2023-03-03T05:06:18.756Z,48.20
2023-03-03T05:08:13.957Z,52.43
2023-03-03T05:10:10.854Z,51.20
2023-03-03T05:12:06.365Z,46.87
2023-03-03T05:14:03.072Z,41.77
2023-03-03T05:15:59.165Z,26.67
2023-03-03T05:17:56.741Z,43.37
2023-03-03T05:19:52.043Z,45.00
2023-03-03T05:21:47.166Z,47.20
2023-03-03T05:23:42.596Z,50.47
2023-03-03T05:25:38.177Z,48.03
2023-03-03T05:27:33.141Z,43.57
2023-03-03T05:29:28.686Z,42.33
2023-03-03T05:31:24.054Z,42.97
2023-03-03T05:33:22.027Z,39.40
2023-03-03T05:35:17.630Z,40.40
2023-03-03T05:37:13.431Z,53.47
2023-03-03T05:39:08.406Z,46.23
2023-03-03T05:41:03.652Z,45.27
2023-03-03T05:42:58.705Z,43.70
2023-03-03T05:44:53.750Z,46.00
2023-03-03T05:46:49.110Z,52.20
2023-03-03T05:48:46.658Z,36.53
2023-03-03T05:50:42.124Z,36.47
2023-03-03T05:52:37.021Z,37.57
2023-03-03T05:54:32.295Z,35.27
2023-03-03T05:56:27.407Z,35.30
2023-03-03T05:58:22.876Z,41.47
2023-03-03T06:00:19.842Z,71.40
2023-03-03T06:02:15.257Z,31.63
2023-03-03T06:04:12.768Z,43.40
2023-03-03T06:06:09.198Z,31.43
2023-03-03T06:08:04.285Z,39.37
2023-03-03T06:09:59.579Z,36.70
2023-03-03T06:11:54.627Z,34.50
2023-03-03T06:13:50.005Z,37.87
2023-03-03T06:15:45.169Z,40.03
2023-03-03T06:17:40.846Z,43.30
2023-03-03T06:19:41.437Z,34.67
2023-03-03T06:21:36.794Z,37.07
2023-03-03T06:23:31.859Z,34.10
2023-03-03T06:25:27.266Z,33.87
2023-03-03T06:27:22.718Z,34.83
2023-03-03T06:29:18.086Z,40.07
2023-03-03T06:31:13.130Z,35.50
2023-03-03T06:33:08.554Z,33.80
2023-03-03T06:35:06.726Z,35.20
2023-03-03T06:37:02.303Z,27.23
2023-03-03T06:38:57.633Z,31.77
2023-03-03T06:40:53.289Z,38.03
2023-03-03T06:42:48.616Z,31.87
2023-03-03T06:44:44.280Z,33.30
2023-03-03T06:46:39.535Z,35.23
2023-03-03T06:48:35.714Z,32.40
2023-03-03T06:50:33.562Z,35.67
2023-03-03T06:52:30.670Z,34.27
2023-03-03T06:54:31.284Z,39.20
2023-03-03T06:56:28.000Z,33.23
2023-03-03T06:58:24.714Z,36.27
2023-03-03T07:00:22.893Z,45.57
2023-03-03T07:02:20.969Z,29.83
2023-03-03T07:04:31.814Z,38.20
2023-03-03T07:06:30.216Z,32.57
2023-03-03T07:08:27.094Z,43.07
2023-03-03T07:10:26.778Z,33.77
2023-03-03T07:12:24.452Z,29.10
2023-03-03T07:14:22.210Z,31.63
2023-03-03T07:16:19.780Z,31.33
2023-03-03T07:18:29.900Z,42.63
2023-03-03T07:20:27.329Z,30.80
2023-03-03T07:22:27.979Z,30.43
2023-03-03T07:24:30.539Z,26.33
2023-03-03T07:26:30.805Z,26.17
2023-03-03T07:28:27.860Z,28.37
2023-03-03T07:30:29.097Z,32.97
2023-03-03T07:32:38.464Z,29.13
2023-03-03T07:34:40.719Z,34.00
2023-03-03T07:36:40.130Z,29.20
2023-03-03T07:38:40.865Z,22.67
2023-03-03T07:40:41.363Z,27.70
2023-03-03T07:42:41.796Z,28.20
2023-03-03T07:44:40.226Z,32.63
2023-03-03T07:46:44.009Z,31.33
2023-03-03T07:48:41.086Z,31.17
2023-03-03T07:50:37.373Z,30.60
2023-03-03T07:52:42.041Z,35.33
2023-03-03T07:54:42.742Z,40.10
2023-03-03T07:56:38.891Z,40.33
2023-03-03T07:58:40.937Z,36.53
2023-03-03T08:01:15.413Z,38.23
2023-03-03T08:03:15.312Z,39.63
2023-03-03T08:05:38.311Z,41.30
2023-03-03T08:07:33.628Z,37.87
2023-03-03T08:09:51.154Z,28.57
2023-03-03T08:11:52.385Z,35.73
2023-03-03T08:13:49.011Z,31.33
2023-03-03T08:15:44.029Z,32.57
2023-03-03T08:17:41.916Z,33.20
2023-03-03T08:19:37.156Z,32.03
2023-03-03T08:21:32.467Z,34.27
2023-03-03T08:23:27.410Z,38.23
2023-03-03T08:25:25.377Z,31.67
2023-03-03T08:27:20.346Z,34.43
2023-03-03T08:29:15.611Z,38.13
2023-03-03T08:31:20.209Z,43.30
2023-03-03T08:33:18.664Z,41.70
2023-03-03T08:35:13.813Z,32.50
2023-03-03T08:37:09.132Z,37.97
2023-03-03T08:39:04.401Z,31.40
2023-03-03T08:41:02.566Z,29.27
2023-03-03T08:43:06.903Z,32.63
2023-03-03T08:45:02.362Z,33.13
2023-03-03T08:46:57.530Z,32.03
2023-03-03T08:48:53.436Z,33.03
2023-03-03T08:50:49.236Z,32.07
2023-03-03T08:52:46.895Z,31.30
2023-03-03T08:54:41.997Z,31.93
2023-03-03T08:56:40.414Z,28.67
2023-03-03T08:58:36.622Z,31.00
2023-03-03T09:00:32.549Z,27.70
2023-03-03T09:02:27.956Z,26.33
2023-03-03T09:04:23.675Z,29.30
2023-03-03T09:06:19.078Z,27.60
2023-03-03T09:08:14.992Z,30.97
2023-03-03T09:10:12.306Z,30.83
2023-03-03T09:12:19.631Z,26.37
2023-03-03T09:14:16.627Z,26.83
2023-03-03T09:16:16.873Z,24.43
2023-03-03T09:18:19.241Z,24.87
2023-03-03T09:20:26.590Z,29.03
2023-03-03T09:22:23.445Z,27.93
2023-03-03T09:24:27.567Z,23.80
2023-03-03T09:26:31.174Z,22.77
2023-03-03T09:28:31.728Z,22.73
2023-03-03T09:30:39.629Z,19.63
2023-03-03T09:32:40.505Z,22.00
2023-03-03T09:34:42.623Z,23.77
2023-03-03T09:36:40.514Z,22.70
2023-03-03T09:38:36.956Z,25.03
2023-03-03T09:40:56.536Z,23.93
2023-03-03T09:43:06.241Z,14.87
2023-03-03T09:45:29.169Z,21.17
2023-03-03T09:47:45.168Z,23.00
2023-03-03T09:49:51.556Z,28.00
2023-03-03T09:52:02.757Z,19.63
2023-03-03T09:54:10.680Z,21.27
2023-03-03T09:56:14.715Z,20.03
2023-03-03T09:58:22.432Z,20.80
2023-03-03T10:00:40.406Z,26.17
2023-03-03T10:02:52.626Z,21.37
2023-03-03T10:05:15.668Z,21.17
2023-03-03T10:07:22.927Z,22.50
2023-03-03T10:09:44.543Z,23.27
2023-03-03T10:11:46.969Z,22.00
2023-03-03T10:13:59.633Z,22.00
2023-03-03T10:16:22.202Z,20.20
2023-03-03T10:18:33.652Z,18.03
2023-03-03T10:20:49.469Z,20.40
2023-03-03T10:22:54.991Z,21.37
2023-03-03T10:25:17.848Z,19.77
2023-03-03T10:27:28.450Z,19.67
2023-03-03T10:29:34.057Z,19.93
2023-03-03T10:31:45.281Z,18.97
2023-03-03T10:33:50.191Z,19.20
2023-03-03T10:36:07.391Z,18.60
2023-03-03T10:38:19.058Z,18.57
2023-03-03T10:40:28.390Z,17.93
2023-03-03T10:42:44.980Z,20.17
2023-03-03T10:44:53.374Z,20.13
2023-03-03T10:47:04.079Z,22.33
2023-03-03T10:49:13.575Z,16.43
2023-03-03T10:51:23.492Z,14.97
2023-03-03T10:53:25.314Z,17.13
2023-03-03T10:55:41.356Z,16.10
2023-03-03T10:57:44.852Z,19.53
2023-03-03T10:59:56.245Z,20.13
2023-03-03T11:02:00.006Z,18.03
2023-03-03T11:04:30.781Z,19.17
2023-03-03T11:06:29.678Z,17.27
2023-03-03T11:08:31.257Z,20.33
2023-03-03T11:10:50.108Z,16.50
2023-03-03T11:13:00.060Z,15.73
2023-03-03T11:15:19.279Z,15.40
2023-03-03T11:17:23.747Z,17.63
2023-03-03T11:19:46.613Z,19.63
2023-03-03T11:21:49.012Z,17.37
2023-03-03T11:24:08.401Z,19.23
2023-03-03T11:26:11.990Z,16.63
2023-03-03T11:28:30.747Z,19.13
2023-03-03T11:30:39.493Z,17.93
2023-03-03T11:32:44.552Z,18.40
2023-03-03T11:34:57.498Z,19.90
2023-03-03T11:36:58.842Z,22.87
2023-03-03T11:39:00.503Z,19.23
2023-03-03T11:40:59.418Z,20.87
2023-03-03T11:43:05.433Z,21.20
2023-03-03T11:45:05.957Z,24.93
2023-03-03T11:47:04.842Z,23.17
2023-03-03T11:49:08.866Z,24.67
2023-03-03T11:51:09.073Z,25.37
2023-03-03T11:53:19.251Z,25.10
2023-03-03T11:55:18.714Z,24.03
2023-03-03T11:57:21.360Z,25.90
2023-03-03T11:59:38.426Z,28.33
2023-03-03T12:01:39.109Z,25.17
2023-03-03T12:03:37.870Z,24.73
2023-03-03T12:05:46.409Z,23.93
2023-03-03T12:07:50.970Z,31.10
2023-03-03T12:09:56.595Z,28.83
2023-03-03T12:11:56.685Z,26.43
2023-03-03T12:13:59.765Z,29.70
2023-03-03T12:16:07.674Z,29.50
2023-03-03T12:18:18.636Z,33.13
2023-03-03T12:20:21.104Z,30.83
2023-03-03T12:22:38.696Z,26.47
2023-03-03T12:24:45.122Z,26.07
2023-03-03T12:26:50.331Z,35.70
2023-03-03T12:28:53.544Z,20.70
2023-03-03T12:31:13.524Z,27.60
2023-03-03T12:33:29.321Z,33.97
2023-03-03T12:35:34.999Z,28.57
2023-03-03T12:37:54.007Z,34.07
2023-03-03T12:40:04.420Z,27.97
2023-03-03T12:42:06.821Z,33.17
2023-03-03T12:44:11.194Z,29.53
2023-03-03T12:46:13.812Z,27.20
2023-03-03T12:48:12.865Z,34.33
2023-03-03T12:50:26.166Z,30.67
2023-03-03T12:52:29.668Z,30.33
2023-03-03T12:54:37.350Z,27.20
2023-03-03T12:56:40.303Z,28.67
2023-03-03T12:58:46.348Z,25.93
2023-03-03T13:00:52.044Z,26.10
2023-03-03T13:02:56.363Z,32.03
2023-03-03T13:04:57.979Z,28.80
2023-03-03T13:07:02.096Z,29.27
2023-03-03T13:09:10.136Z,30.60
2023-03-03T13:11:34.325Z,23.90
2023-03-03T13:13:39.554Z,32.30
2023-03-03T13:15:40.920Z,32.47
2023-03-03T13:17:49.446Z,30.17
2023-03-03T13:19:49.807Z,35.20
2023-03-03T13:21:52.020Z,31.70
2023-03-03T13:23:56.535Z,30.57
2023-03-03T13:25:56.968Z,32.10
2023-03-03T13:27:57.173Z,27.13
2023-03-03T13:30:02.196Z,31.17
2023-03-03T13:31:59.707Z,34.87
2023-03-03T13:33:58.699Z,30.23
2023-03-03T13:35:57.642Z,30.27
2023-03-03T13:37:58.087Z,35.00
2023-03-03T13:40:01.418Z,30.63
2023-03-03T13:42:02.979Z,27.67
2023-03-03T13:44:04.872Z,27.73
2023-03-03T13:46:11.091Z,32.07
2023-03-03T13:48:18.033Z,26.43
2023-03-03T13:50:27.565Z,27.60
2023-03-03T13:52:24.692Z,30.50
2023-03-03T13:54:39.084Z,31.63
2023-03-03T13:56:50.997Z,32.07
2023-03-03T13:58:56.284Z,30.00
2023-03-03T14:01:00.904Z,28.43
2023-03-03T14:03:15.456Z,31.13
2023-03-03T14:05:18.758Z,30.53
2023-03-03T14:07:20.479Z,29.00
2023-03-03T14:09:33.627Z,26.70
2023-03-03T14:11:34.093Z,26.87
2023-03-03T14:13:35.664Z,20.83
2023-03-03T14:15:33.648Z,27.60
2023-03-03T14:17:36.671Z,28.43
2023-03-03T14:19:38.611Z,26.27
2023-03-03T14:21:40.248Z,29.90
2023-03-03T14:23:50.430Z,28.87
2023-03-03T14:26:01.270Z,30.63
2023-03-03T14:28:08.210Z,29.93
2023-03-03T14:30:03.278Z,26.73
2023-03-03T14:32:01.541Z,22.87
2023-03-03T14:34:05.192Z,28.43
2023-03-03T14:36:09.341Z,20.97
2023-03-03T14:38:06.283Z,23.97
2023-03-03T14:40:17.687Z,27.23
2023-03-03T14:42:16.325Z,22.83
2023-03-03T14:44:28.993Z,26.47
2023-03-03T14:46:41.819Z,28.47
2023-03-03T14:48:54.095Z,24.67
2023-03-03T14:50:53.014Z,24.13
2023-03-03T14:53:08.948Z,23.07
2023-03-03T14:55:06.672Z,25.97
2023-03-03T14:57:15.258Z,24.17
2023-03-03T14:59:21.732Z,25.17
2023-03-03T15:01:23.970Z,24.83
2023-03-03T15:03:25.854Z,23.07
2023-03-03T15:05:24.789Z,21.90
2023-03-03T15:07:34.927Z,23.80
2023-03-03T15:09:42.872Z,24.57
2023-03-03T15:11:39.515Z,26.83
2023-03-03T15:13:41.298Z,26.17
2023-03-03T15:15:38.654Z,25.13
2023-03-03T15:17:38.718Z,27.47
2023-03-03T15:19:48.486Z,21.83
2023-03-03T15:21:55.192Z,31.77
2023-03-03T15:23:59.066Z,17.13
2023-03-03T15:26:03.408Z,24.17
2023-03-03T15:28:13.556Z,26.23
2023-03-03T15:30:23.483Z,26.13
2023-03-03T15:32:30.975Z,18.63
2023-03-03T15:34:39.252Z,19.10
2023-03-03T15:36:45.144Z,27.73
2023-03-03T15:38:57.483Z,29.37
2023-03-03T15:40:56.836Z,26.87
2023-03-03T15:43:05.668Z,24.70
2023-03-03T15:45:12.264Z,27.47
2023-03-03T15:47:18.887Z,22.90
2023-03-03T15:49:31.782Z,24.83
2023-03-03T15:51:48.194Z,26.80
2023-03-03T15:54:15.746Z,16.80
2023-03-03T15:56:23.456Z,25.83
2023-03-03T15:58:49.180Z,27.40
2023-03-03T16:01:00.347Z,25.20
2023-03-03T16:02:59.548Z,24.37
2023-03-03T16:05:03.044Z,21.67
2023-03-03T16:07:05.666Z,27.97
2023-03-03T16:09:12.080Z,20.63
2023-03-03T16:11:15.352Z,29.03
2023-03-03T16:13:25.273Z,23.73
2023-03-03T16:15:47.967Z,29.67
2023-03-03T16:17:56.169Z,21.63
2023-03-03T16:20:05.060Z,19.37
2023-03-03T16:22:22.672Z,20.60
2023-03-03T16:24:27.963Z,20.27
2023-03-03T16:26:36.731Z,21.00
2023-03-03T16:28:46.344Z,22.43
2023-03-03T16:30:54.561Z,22.97
2023-03-03T16:32:58.472Z,24.33
2023-03-03T16:35:00.333Z,23.83
2023-03-03T16:37:04.162Z,26.63
2023-03-03T16:39:07.513Z,22.97
2023-03-03T16:41:09.710Z,21.03
2023-03-03T16:43:21.628Z,25.70
2023-03-03T16:45:26.603Z,25.33
2023-03-03T16:47:37.583Z,23.20
2023-03-03T16:49:43.448Z,23.20
2023-03-03T16:51:48.678Z,24.60
2023-03-03T16:53:59.085Z,27.13
2023-03-03T16:56:04.353Z,21.63
2023-03-03T16:58:19.419Z,22.07
2023-03-03T17:00:20.728Z,19.07
2023-03-03T17:02:49.127Z,25.47
2023-03-03T17:04:57.794Z,27.33
2023-03-03T17:07:00.600Z,27.80
2023-03-03T17:09:30.073Z,25.80
2023-03-03T17:11:37.177Z,25.53
2023-03-03T17:13:51.662Z,26.47
2023-03-03T17:15:55.602Z,23.93
2023-03-03T17:18:04.861Z,23.03
2023-03-03T17:20:13.003Z,25.63
2023-03-03T17:22:19.675Z,27.30
2023-03-03T17:24:26.431Z,24.63
2023-03-03T17:26:33.818Z,24.53
2023-03-03T17:28:38.727Z,23.00
2023-03-03T17:30:42.233Z,25.80
2023-03-03T17:32:58.805Z,24.87
2023-03-03T17:35:11.065Z,12.70
2023-03-03T17:37:17.242Z,22.67
2023-03-03T17:39:39.790Z,24.77
2023-03-03T17:41:41.439Z,26.17
2023-03-03T17:43:46.848Z,8.30
2023-03-03T17:45:45.452Z,17.23
2023-03-03T17:47:49.881Z,19.33
2023-03-03T17:50:09.048Z,24.03
2023-03-03T17:52:30.494Z,18.57
2023-03-03T17:54:43.150Z,21.17
2023-03-03T17:56:47.615Z,16.20
2023-03-03T17:59:01.196Z,19.07
2023-03-03T18:01:10.994Z,24.93
2023-03-03T18:03:38.826Z,21.97
2023-03-03T18:05:47.730Z,31.57
2023-03-03T18:07:54.789Z,20.30
2023-03-03T18:10:19.760Z,18.87
2023-03-03T18:12:21.380Z,20.57
2023-03-03T18:14:42.100Z,20.23
2023-03-03T18:16:54.074Z,15.83
2023-03-03T18:19:10.812Z,20.43
2023-03-03T18:21:13.231Z,18.57
2023-03-03T18:23:39.834Z,24.87
2023-03-03T18:25:58.693Z,27.80
2023-03-03T18:28:22.866Z,17.87
2023-03-03T18:30:54.265Z,8.57
2023-03-03T18:33:02.195Z,25.10
2023-03-03T18:35:27.595Z,26.50
2023-03-03T18:37:42.656Z,27.93
2023-03-03T18:39:45.741Z,25.53
2023-03-03T18:42:11.908Z,19.80
2023-03-03T18:44:28.397Z,27.43
2023-03-03T18:46:52.265Z,18.33
2023-03-03T18:48:52.475Z,23.40
2023-03-03T18:50:49.669Z,28.13
2023-03-03T18:53:30.575Z,24.03
2023-03-03T18:55:29.477Z,18.63
2023-03-03T18:57:24.652Z,24.67
2023-03-03T18:59:42.100Z,25.67
2023-03-03T19:01:44.875Z,23.97
2023-03-03T19:03:58.290Z,16.83
2023-03-03T19:05:57.698Z,29.20
2023-03-03T19:07:56.015Z,25.10
2023-03-03T19:09:57.253Z,28.30
2023-03-03T19:11:57.931Z,16.07
2023-03-03T19:13:53.334Z,12.90
2023-03-03T19:15:58.626Z,23.17
2023-03-03T19:17:58.914Z,24.93
2023-03-03T19:20:05.024Z,25.67
2023-03-03T19:22:24.103Z,28.50
2023-03-03T19:24:34.169Z,14.20
2023-03-03T19:27:03.801Z,13.13
2023-03-03T19:29:08.840Z,19.23
2023-03-03T19:31:09.530Z,21.17
2023-03-03T19:33:23.906Z,25.77
2023-03-03T19:35:29.965Z,24.60
2023-03-03T19:37:39.586Z,29.33
2023-03-03T19:40:01.012Z,14.13
2023-03-03T19:42:06.267Z,20.40
2023-03-03T19:44:14.382Z,22.33
2023-03-03T19:46:34.548Z,30.47
2023-03-03T19:48:38.783Z,23.90
2023-03-03T19:50:45.026Z,19.93
2023-03-03T19:52:45.275Z,22.77
2023-03-03T19:54:56.296Z,24.00
2023-03-03T19:56:53.868Z,29.50
2023-03-03T19:59:15.006Z,33.60
2023-03-03T20:01:20.617Z,33.37
2023-03-03T20:03:44.960Z,26.07
2023-03-03T20:05:46.959Z,29.53
2023-03-03T20:07:50.687Z,23.53
2023-03-03T20:09:57.473Z,21.57
2023-03-03T20:12:11.191Z,21.50
2023-03-03T20:14:18.692Z,32.00
2023-03-03T20:16:27.733Z,18.00
2023-03-03T20:18:50.655Z,17.70
2023-03-03T20:21:08.487Z,33.20
2023-03-03T20:23:11.848Z,34.47
2023-03-03T20:25:19.401Z,24.23
2023-03-03T20:27:20.772Z,19.30
2023-03-03T20:29:35.880Z,30.40
2023-03-03T20:31:37.884Z,31.93
2023-03-03T20:33:50.432Z,31.13
2023-03-03T20:35:57.269Z,21.53
2023-03-03T20:38:01.614Z,29.90
2023-03-03T20:40:05.999Z,28.50
2023-03-03T20:42:11.949Z,18.40
2023-03-03T20:44:27.352Z,26.53
2023-03-03T20:46:26.647Z,31.13
2023-03-03T20:48:37.362Z,23.40
2023-03-03T20:50:38.291Z,27.13
2023-03-03T20:52:42.415Z,29.50
2023-03-03T20:54:45.308Z,27.87
2023-03-03T20:56:48.948Z,26.13
2023-03-03T20:59:07.171Z,25.40
2023-03-03T21:01:09.543Z,19.00
2023-03-03T21:03:16.829Z,16.73
2023-03-03T21:05:26.759Z,25.63
2023-03-03T21:07:28.612Z,23.03
2023-03-03T21:09:29.514Z,23.97
2023-03-03T21:11:27.304Z,25.77
2023-03-03T21:13:30.997Z,22.77
2023-03-03T21:15:30.106Z,24.93
2023-03-03T21:17:32.336Z,22.90
2023-03-03T21:19:31.164Z,24.80
2023-03-03T21:21:26.920Z,17.10
2023-03-03T21:23:23.120Z,19.50
2023-03-03T21:25:45.820Z,19.43
2023-03-03T21:27:40.817Z,23.63
2023-03-03T21:29:38.093Z,17.97
2023-03-03T21:31:47.073Z,22.03
2023-03-03T21:33:53.788Z,22.13
2023-03-03T21:36:00.880Z,13.57
2023-03-03T21:37:58.050Z,20.63
2023-03-03T21:40:18.358Z,22.73
2023-03-03T21:42:15.327Z,21.90
2023-03-03T21:44:38.991Z,24.93
2023-03-03T21:46:33.932Z,23.50
2023-03-03T21:48:35.886Z,22.37
2023-03-03T21:50:36.151Z,26.53
2023-03-03T21:52:31.576Z,24.43
2023-03-03T21:54:26.960Z,17.70
2023-03-03T21:56:22.233Z,22.90
2023-03-03T21:58:17.127Z,21.83
2023-03-03T22:00:14.229Z,24.27
2023-03-03T22:02:10.407Z,29.03
2023-03-03T22:04:06.217Z,27.00
2023-03-03T22:06:04.501Z,26.30
2023-03-03T22:07:59.431Z,24.10
2023-03-03T22:09:56.578Z,21.33
2023-03-03T22:11:51.815Z,22.20
2023-03-03T22:13:47.150Z,23.70
2023-03-03T22:15:42.420Z,19.50
2023-03-03T22:17:37.759Z,27.90
2023-03-03T22:19:34.273Z,24.20
2023-03-03T22:21:32.535Z,22.93
2023-03-03T22:23:27.688Z,30.43
2023-03-03T22:25:23.204Z,18.80
2023-03-03T22:27:18.306Z,31.40
2023-03-03T22:29:16.453Z,23.10
2023-03-03T22:31:11.563Z,24.70
2023-03-03T22:33:07.260Z,30.10
2023-03-03T22:35:02.214Z,31.03
2023-03-03T22:37:00.293Z,34.73
2023-03-03T22:38:55.464Z,28.17
2023-03-03T22:40:51.328Z,25.73
2023-03-03T22:42:46.308Z,28.13
2023-03-03T22:44:43.610Z,31.47
2023-03-03T22:46:40.493Z,25.33
2023-03-03T22:48:35.915Z,35.03
2023-03-03T22:50:31.073Z,33.33
2023-03-03T22:52:28.928Z,27.40
2023-03-03T22:54:23.909Z,34.87
2023-03-03T22:56:19.306Z,32.60
2023-03-03T22:58:14.799Z,35.87
2023-03-03T23:00:13.198Z,35.90
2023-03-03T23:02:31.766Z,30.40
2023-03-03T23:04:33.267Z,27.47
2023-03-03T23:06:28.303Z,32.00
2023-03-03T23:08:27.500Z,22.33
2023-03-03T23:13:06.372Z,32.10
2023-03-03T23:15:03.649Z,24.83
2023-03-03T23:17:02.085Z,31.63
2023-03-03T23:18:56.988Z,33.60
2023-03-03T23:20:52.242Z,27.87
2023-03-03T23:22:47.242Z,20.03
2023-03-03T23:24:45.798Z,25.60
2023-03-03T23:26:41.555Z,29.77
2023-03-03T23:28:36.877Z,20.70
2023-03-03T23:30:31.911Z,23.10
2023-03-03T23:32:27.241Z,31.77
2023-03-03T23:34:22.294Z,20.60
2023-03-03T23:36:17.588Z,28.87
2023-03-03T23:38:15.513Z,26.10
2023-03-03T23:40:14.833Z,32.83
2023-03-03T23:42:09.842Z,14.63
2023-03-03T23:51:53.701Z,37.50
2023-03-03T23:54:22.218Z,35.30
2023-03-03T23:56:20.734Z,31.60
2023-03-03T23:58:16.131Z,36.00
